Time;durP1;ratioP1;P1;durP2;ratioP2;P2;SDS_P1;SDS_P2;PMS_P1;PMS_P2;Temp;Humidity;BMP_temperature;BMP_pressure;BME280_temperature;BME280_humidity;BME280_pressure;Samples;Min_cycle;Max_cycle;Signal;HPM_P1;HPM_P2
2021/07/07 00:00:58;;;;;;;4.93;1.95;;;17.70;99.90;;;;;;5026484;28;20014;-71
2021/07/07 00:03:24;;;;;;;7.85;2.70;;;17.70;99.90;;;;;;5030477;28;20136;-69
2021/07/07 00:05:50;;;;;;;4.53;1.88;;;17.70;99.90;;;;;;5029934;28;20017;-73
2021/07/07 00:08:16;;;;;;;4.00;2.03;;;17.80;99.90;;;;;;5031043;28;20049;-71
2021/07/07 00:10:41;;;;;;;4.43;2.70;;;17.80;99.90;;;;;;5027499;28;20078;-72
2021/07/07 00:13:07;;;;;;;5.53;2.28;;;17.80;99.90;;;;;;5032207;28;20029;-71
2021/07/07 00:15:34;;;;;;;3.35;1.98;;;17.70;99.90;;;;;;5028105;28;20095;-72
2021/07/07 00:18:09;;;;;;;7.82;2.20;;;17.60;99.90;;;;;;5024896;28;20025;-71
2021/07/07 00:20:53;;;;;;;6.03;2.28;;;17.60;99.90;;;;;;5030090;28;20026;-72
2021/07/07 00:23:19;;;;;;;4.18;1.92;;;17.60;99.90;;;;;;5030648;28;20105;-71
2021/07/07 00:25:45;;;;;;;5.72;2.30;;;17.60;99.90;;;;;;5025967;28;20013;-70
2021/07/07 00:28:11;;;;;;;5.78;2.38;;;17.50;99.90;;;;;;5028776;28;20037;-73
2021/07/07 00:30:37;;;;;;;7.60;2.03;;;17.50;99.90;;;;;;5026355;28;20030;-78
2021/07/07 00:33:02;;;;;;;8.85;2.00;;;17.40;99.90;;;;;;5027402;28;20033;-72
2021/07/07 00:35:28;;;;;;;7.05;1.95;;;17.40;99.90;;;;;;5031728;28;20528;-73
2021/07/07 00:37:54;;;;;;;4.88;2.40;;;17.40;99.90;;;;;;5031056;28;20530;-73
2021/07/07 00:40:20;;;;;;;5.38;1.77;;;17.30;99.90;;;;;;5026642;28;20021;-71
2021/07/07 00:42:46;;;;;;;4.22;1.95;;;17.30;99.90;;;;;;5031569;28;20049;-70
2021/07/07 00:45:13;;;;;;;7.72;2.28;;;17.30;99.90;;;;;;5030609;28;20489;-71
2021/07/07 00:47:38;;;;;;;10.20;2.20;;;17.20;99.90;;;;;;5030039;28;20034;-75
2021/07/07 00:50:05;;;;;;;3.55;2.30;;;17.10;99.90;;;;;;5026318;28;20025;-70
2021/07/07 00:52:32;;;;;;;5.45;2.20;;;17.10;99.90;;;;;;5024930;28;20030;-71
2021/07/07 00:54:58;;;;;;;4.28;2.08;;;17.10;99.90;;;;;;5029618;28;20021;-72
2021/07/07 00:57:27;;;;;;;8.93;3.00;;;17.10;99.90;;;;;;5027667;28;20052;-69
2021/07/07 00:59:54;;;;;;;9.43;2.80;;;17.10;99.90;;;;;;5024273;28;20021;-70
2021/07/07 01:02:20;;;;;;;8.93;2.45;;;17.10;99.90;;;;;;5029431;28;20477;-70
2021/07/07 01:04:46;;;;;;;4.03;2.40;;;17.10;99.90;;;;;;5031461;28;20462;-70
2021/07/07 01:07:12;;;;;;;4.18;2.55;;;17.10;99.90;;;;;;5030837;28;20026;-73
2021/07/07 01:09:38;;;;;;;7.03;3.40;;;17.10;99.90;;;;;;5027302;28;20120;-70
2021/07/07 01:12:06;;;;;;;5.95;2.45;;;17.10;99.90;;;;;;5029142;28;20089;-70
2021/07/07 01:14:31;;;;;;;5.70;2.65;;;17.10;99.90;;;;;;5031945;28;20536;-70
2021/07/07 01:16:58;;;;;;;6.22;2.35;;;17.00;99.90;;;;;;5030835;28;20136;-70
2021/07/07 01:19:23;;;;;;;4.20;2.60;;;17.00;99.90;;;;;;5031756;28;20079;-69
2021/07/07 01:21:50;;;;;;;5.82;2.58;;;17.00;99.90;;;;;;5032099;28;20026;-72
2021/07/07 01:24:18;;;;;;;3.80;2.30;;;17.00;99.90;;;;;;5023363;28;20033;-71
2021/07/07 01:26:45;;;;;;;5.60;2.53;;;17.00;99.90;;;;;;5025891;28;20137;-70
2021/07/07 01:29:12;;;;;;;5.22;2.90;;;17.00;99.90;;;;;;5029525;28;20104;-72
2021/07/07 01:31:39;;;;;;;4.43;3.00;;;17.00;99.90;;;;;;5026318;28;20628;-70
2021/07/07 01:34:06;;;;;;;6.35;3.50;;;17.00;99.90;;;;;;5030812;28;20100;-69
2021/07/07 01:36:34;;;;;;;9.93;4.10;;;17.00;99.90;;;;;;5029160;28;20080;-70
2021/07/07 01:39:00;;;;;;;4.43;3.22;;;16.90;99.90;;;;;;5024994;28;20026;-69
2021/07/07 01:41:26;;;;;;;4.10;3.38;;;16.90;99.90;;;;;;5030031;28;20029;-70
2021/07/07 01:43:52;;;;;;;13.07;3.97;;;16.90;99.90;;;;;;5029656;28;20072;-76
2021/07/07 01:46:18;;;;;;;5.25;3.35;;;16.90;99.90;;;;;;5030658;28;20022;-71
2021/07/07 01:48:44;;;;;;;4.18;3.25;;;16.90;99.90;;;;;;5029439;28;20087;-70
2021/07/07 01:51:09;;;;;;;6.90;3.83;;;16.90;99.90;;;;;;5029710;28;20404;-70
2021/07/07 01:53:35;;;;;;;4.50;3.33;;;16.80;99.90;;;;;;5030906;28;20037;-71
2021/07/07 01:56:01;;;;;;;4.63;3.10;;;16.80;99.90;;;;;;5030990;28;20496;-74
2021/07/07 01:58:26;;;;;;;9.35;3.70;;;16.80;99.90;;;;;;5025067;28;20053;-72
2021/07/07 02:00:52;;;;;;;6.32;3.53;;;16.70;99.90;;;;;;5027600;28;20405;-71
2021/07/07 02:03:18;;;;;;;6.72;3.25;;;16.70;99.90;;;;;;5030382;28;20155;-70
2021/07/07 02:05:44;;;;;;;4.30;3.33;;;16.70;99.90;;;;;;5030479;28;20124;-70
2021/07/07 02:08:10;;;;;;;5.93;3.50;;;16.70;99.90;;;;;;5021022;28;20021;-71
2021/07/07 02:10:38;;;;;;;5.88;4.13;;;16.70;99.90;;;;;;5025192;28;20022;-71
2021/07/07 02:13:06;;;;;;;8.57;3.78;;;16.80;99.90;;;;;;5028155;28;20036;-72
2021/07/07 02:15:33;;;;;;;6.63;3.50;;;16.80;99.90;;;;;;5030887;28;20459;-70
2021/07/07 02:18:00;;;;;;;7.10;3.50;;;16.80;99.90;;;;;;5025027;28;20454;-70
2021/07/07 02:20:28;;;;;;;6.35;4.03;;;16.70;99.90;;;;;;5030466;28;20018;-81
2021/07/07 02:22:54;;;;;;;5.30;3.25;;;16.60;99.90;;;;;;5030565;28;20426;-79
2021/07/07 02:25:24;;;;;;;9.50;4.20;;;16.60;99.90;;;;;;5027132;28;20454;-80
2021/07/07 02:27:50;;;;;;;6.10;3.65;;;16.60;99.90;;;;;;5023863;28;20057;-80
2021/07/07 02:30:20;;;;;;;8.82;3.55;;;16.60;99.90;;;;;;5027710;28;20103;-81
2021/07/07 02:32:46;;;;;;;5.50;3.83;;;16.50;99.90;;;;;;5030101;28;20104;-80
2021/07/07 02:35:20;;;;;;;9.27;3.60;;;16.50;99.90;;;;;;5029872;28;20049;-80
2021/07/07 02:37:52;;;;;;;5.22;3.38;;;16.60;99.90;;;;;;5029958;28;20037;-81
2021/07/07 02:40:19;;;;;;;4.53;3.28;;;16.60;99.90;;;;;;5028718;28;20075;-79
2021/07/07 02:42:45;;;;;;;6.63;4.20;;;16.50;99.90;;;;;;5050854;28;20075;-79
2021/07/07 02:45:14;;;;;;;8.32;4.18;;;16.50;99.90;;;;;;5034852;28;20028;-80
2021/07/07 02:47:41;;;;;;;4.25;3.17;;;16.50;99.90;;;;;;5033342;28;20056;-77
2021/07/07 02:50:09;;;;;;;6.88;4.03;;;16.50;99.90;;;;;;5027595;28;20025;-81
2021/07/07 02:52:37;;;;;;;5.25;3.72;;;16.40;99.90;;;;;;5031189;28;20383;-81
2021/07/07 02:55:03;;;;;;;9.48;4.65;;;16.40;99.90;;;;;;5033567;28;20431;-81
2021/07/07 02:57:55;;;;;;;6.32;3.95;;;16.40;99.90;;;;;;5035432;28;20029;-81
2021/07/07 03:00:15;;;;;;;10.18;4.55;;;16.40;99.90;;;;;;5034303;28;20474;-81
2021/07/07 03:02:40;;;;;;;7.68;3.80;;;16.30;99.90;;;;;;5032329;28;20408;-81
2021/07/07 03:05:06;;;;;;;6.38;4.25;;;16.30;99.90;;;;;;5034324;28;20584;-82
2021/07/07 03:07:32;;;;;;;7.47;3.85;;;16.30;99.90;;;;;;5030455;28;20088;-81
2021/07/07 03:09:57;;;;;;;7.18;4.00;;;16.20;99.90;;;;;;5030839;28;20458;-81
2021/07/07 03:12:23;;;;;;;7.35;4.40;;;16.20;99.90;;;;;;5050640;28;20120;-81
2021/07/07 03:14:49;;;;;;;9.05;4.55;;;16.20;99.90;;;;;;5033880;28;20018;-81
2021/07/07 03:17:14;;;;;;;11.80;4.95;;;16.20;99.90;;;;;;5032215;28;20041;-80
2021/07/07 03:19:40;;;;;;;10.05;4.80;;;16.10;99.90;;;;;;5032496;28;20017;-80
2021/07/07 03:22:07;;;;;;;8.88;5.15;;;16.10;99.90;;;;;;5035099;28;20025;-81
2021/07/07 03:24:32;;;;;;;9.93;5.53;;;16.10;99.90;;;;;;5032791;28;20371;-81
2021/07/07 03:26:58;;;;;;;11.52;5.20;;;16.10;99.90;;;;;;5028052;28;20033;-80
2021/07/07 03:29:24;;;;;;;8.13;5.60;;;16.20;99.90;;;;;;5030585;28;20018;-81
2021/07/07 03:31:50;;;;;;;11.05;4.90;;;16.10;99.90;;;;;;5035008;28;20029;-81
2021/07/07 03:34:16;;;;;;;9.23;4.53;;;16.10;99.90;;;;;;5032839;28;20017;-80
2021/07/07 03:36:41;;;;;;;10.05;4.93;;;16.10;99.90;;;;;;5031595;28;20033;-81
2021/07/07 03:39:07;;;;;;;7.82;4.72;;;16.10;99.90;;;;;;5034923;28;20029;-80
2021/07/07 03:41:33;;;;;;;10.23;5.85;;;16.10;99.90;;;;;;5032206;28;20113;-81
2021/07/07 03:43:58;;;;;;;9.65;5.32;;;16.10;99.90;;;;;;5032858;28;20026;-80
2021/07/07 03:46:24;;;;;;;18.55;5.35;;;16.10;99.90;;;;;;5030991;28;20093;-80
2021/07/07 03:48:50;;;;;;;7.57;5.00;;;16.20;99.90;;;;;;5034890;28;20033;-80
2021/07/07 03:51:16;;;;;;;8.10;4.65;;;16.20;99.90;;;;;;5034211;28;20025;-80
2021/07/07 03:53:42;;;;;;;10.35;4.97;;;16.30;99.90;;;;;;5030816;28;20037;-76
2021/07/07 03:56:08;;;;;;;7.88;4.70;;;16.20;99.90;;;;;;5028686;28;20029;-77
2021/07/07 03:58:33;;;;;;;9.38;4.70;;;16.30;99.90;;;;;;5034576;28;20543;-78
2021/07/07 04:00:59;;;;;;;9.35;4.32;;;16.30;99.90;;;;;;5032016;28;20013;-75
2021/07/07 04:03:24;;;;;;;12.90;4.65;;;16.30;99.90;;;;;;5026553;28;20048;-79
2021/07/07 04:05:50;;;;;;;8.35;4.70;;;16.20;99.90;;;;;;5033461;28;20088;-76
2021/07/07 04:08:16;;;;;;;8.30;5.25;;;16.20;99.90;;;;;;5031827;28;20104;-80
2021/07/07 04:10:41;;;;;;;6.32;4.50;;;16.20;99.90;;;;;;5026296;28;20018;-79
2021/07/07 04:13:07;;;;;;;7.65;4.55;;;16.20;99.90;;;;;;5027214;28;20401;-80
2021/07/07 04:15:33;;;;;;;8.35;4.53;;;16.20;99.90;;;;;;5032182;28;20076;-79
2021/07/07 04:17:58;;;;;;;8.80;5.10;;;16.20;99.90;;;;;;5032475;28;20034;-78
2021/07/07 04:20:24;;;;;;;8.32;4.60;;;16.20;99.90;;;;;;5031948;28;20462;-80
2021/07/07 04:22:50;;;;;;;9.88;4.60;;;16.20;99.90;;;;;;5032184;28;20044;-80
2021/07/07 04:25:16;;;;;;;11.65;6.05;;;16.10;99.90;;;;;;5032967;28;20079;-80
2021/07/07 04:27:43;;;;;;;10.43;4.45;;;16.20;99.90;;;;;;5031500;28;20079;-79
2021/07/07 04:30:12;;;;;;;10.57;4.28;;;16.20;99.90;;;;;;5029984;28;20059;-79
2021/07/07 04:32:38;;;;;;;10.30;4.78;;;16.20;99.90;;;;;;5030349;28;20034;-79
2021/07/07 04:35:06;;;;;;;13.10;4.55;;;16.20;99.90;;;;;;5031796;28;20525;-79
2021/07/07 04:37:31;;;;;;;9.80;4.95;;;16.20;99.90;;;;;;5022728;28;20040;-80
2021/07/07 04:39:57;;;;;;;7.20;4.90;;;16.10;99.90;;;;;;5032928;28;20021;-80
2021/07/07 04:42:23;;;;;;;6.40;4.88;;;16.20;99.90;;;;;;5033820;28;20034;-79
2021/07/07 04:44:48;;;;;;;8.23;4.85;;;16.20;99.90;;;;;;5032053;28;20029;-80
2021/07/07 04:47:14;;;;;;;10.63;5.10;;;16.10;99.90;;;;;;5032214;28;20057;-78
2021/07/07 04:49:40;;;;;;;10.65;4.95;;;16.10;99.90;;;;;;5030305;28;20442;-78
2021/07/07 04:52:05;;;;;;;11.55;5.07;;;16.20;99.90;;;;;;5029294;28;20079;-78
2021/07/07 04:54:32;;;;;;;9.55;4.28;;;16.20;99.90;;;;;;5029467;28;20021;-83
2021/07/07 04:56:59;;;;;;;10.40;4.63;;;16.20;99.90;;;;;;5024231;28;20074;-77
2021/07/07 04:59:25;;;;;;;10.63;4.65;;;16.30;99.90;;;;;;5027421;28;20534;-81
2021/07/07 05:01:50;;;;;;;9.00;4.78;;;16.30;99.90;;;;;;5031910;28;20093;-80
2021/07/07 05:04:16;;;;;;;8.80;5.13;;;16.40;99.90;;;;;;5029101;28;20082;-72
2021/07/07 05:06:41;;;;;;;11.27;5.53;;;16.40;99.90;;;;;;5032310;28;20094;-79
2021/07/07 05:09:07;;;;;;;9.75;5.28;;;16.50;99.90;;;;;;5029262;28;20030;-70
2021/07/07 05:11:33;;;;;;;10.95;5.03;;;16.50;99.90;;;;;;5029427;28;20020;-81
2021/07/07 05:13:59;;;;;;;14.82;4.82;;;16.50;99.90;;;;;;5023939;28;20022;-80
2021/07/07 05:16:25;;;;;;;11.85;4.72;;;16.50;99.90;;;;;;5028634;28;20029;-79
2021/07/07 05:18:50;;;;;;;10.32;4.70;;;16.50;99.90;;;;;;5024901;28;20384;-80
2021/07/07 05:21:16;;;;;;;10.30;4.75;;;16.50;99.90;;;;;;5032309;28;20470;-80
2021/07/07 05:23:41;;;;;;;11.95;4.57;;;16.50;99.90;;;;;;5031347;28;20420;-80
2021/07/07 05:26:07;;;;;;;7.35;4.45;;;16.50;99.90;;;;;;5030238;28;20036;-80
2021/07/07 05:28:33;;;;;;;9.48;4.80;;;16.60;99.90;;;;;;5030347;28;20511;-78
2021/07/07 05:31:06;;;;;;;11.75;4.57;;;16.60;99.90;;;;;;5029058;28;20440;-78
2021/07/07 05:33:35;;;;;;;10.88;5.03;;;16.70;99.90;;;;;;5025846;28;20040;-78
2021/07/07 05:36:06;;;;;;;7.93;4.43;;;16.60;99.90;;;;;;5030758;28;20672;-78
2021/07/07 05:38:32;;;;;;;9.57;4.75;;;16.70;99.90;;;;;;5028525;28;20036;-78
2021/07/07 05:40:59;;;;;;;13.57;5.18;;;16.70;99.90;;;;;;5030726;28;20100;-79
2021/07/07 05:43:25;;;;;;;14.35;5.20;;;16.70;99.90;;;;;;5025417;28;20025;-79
2021/07/07 05:45:50;;;;;;;8.00;4.80;;;16.80;99.90;;;;;;5023137;28;20026;-73
2021/07/07 05:48:16;;;;;;;12.30;4.63;;;16.80;99.90;;;;;;5029059;28;20041;-77
2021/07/07 05:50:42;;;;;;;7.15;4.43;;;16.80;99.90;;;;;;5028613;28;20021;-77
2021/07/07 05:53:08;;;;;;;18.55;5.72;;;16.80;99.90;;;;;;5032165;28;20018;-77
2021/07/07 05:55:33;;;;;;;11.75;4.85;;;16.80;99.90;;;;;;5026721;28;20036;-78
2021/07/07 05:57:59;;;;;;;13.52;4.05;;;16.90;99.90;;;;;;5026973;28;20042;-79
2021/07/07 06:00:26;;;;;;;8.55;3.70;;;16.90;99.90;;;;;;5030753;28;20017;-78
2021/07/07 06:02:52;;;;;;;9.93;4.22;;;16.90;99.90;;;;;;5031467;28;20464;-78
2021/07/07 06:05:19;;;;;;;9.27;3.70;;;17.00;99.90;;;;;;5034262;28;20076;-79
2021/07/07 06:07:45;;;;;;;14.23;4.30;;;17.00;99.90;;;;;;5029382;28;20021;-76
2021/07/07 06:10:14;;;;;;;8.73;4.07;;;17.10;99.90;;;;;;5026632;28;20463;-77
2021/07/07 06:12:40;;;;;;;12.07;4.07;;;17.20;99.90;;;;;;5031591;28;20085;-73
2021/07/07 06:15:08;;;;;;;10.73;3.55;;;17.20;99.90;;;;;;5031254;28;20470;-73
2021/07/07 06:17:33;;;;;;;8.55;4.05;;;17.30;99.90;;;;;;5029026;28;20076;-73
2021/07/07 06:19:59;;;;;;;9.70;4.10;;;17.30;99.90;;;;;;5025766;28;20104;-76
2021/07/07 06:22:25;;;;;;;8.98;3.70;;;17.30;99.90;;;;;;5027268;28;20071;-71
2021/07/07 06:24:51;;;;;;;7.60;3.05;;;17.40;99.90;;;;;;5026502;28;20014;-71
2021/07/07 06:27:17;;;;;;;12.98;3.97;;;17.50;99.90;;;;;;5026030;28;20048;-78
2021/07/07 06:29:43;;;;;;;10.18;3.70;;;17.50;99.90;;;;;;5026136;28;20489;-71
2021/07/07 06:32:09;;;;;;;7.63;3.40;;;17.60;99.90;;;;;;5025680;28;20535;-72
2021/07/07 06:34:35;;;;;;;7.25;3.30;;;17.70;99.90;;;;;;5026356;28;20021;-74
2021/07/07 06:37:00;;;;;;;8.35;3.25;;;17.70;99.90;;;;;;5030284;28;20389;-70
2021/07/07 06:39:26;;;;;;;7.38;3.97;;;17.70;99.90;;;;;;5028607;28;20627;-76
2021/07/07 06:41:52;;;;;;;9.07;3.47;;;17.80;99.90;;;;;;5028802;28;20033;-75
2021/07/07 06:44:18;;;;;;;13.68;4.05;;;17.90;99.90;;;;;;5029490;28;20032;-70
2021/07/07 06:46:43;;;;;;;8.38;3.17;;;17.90;99.90;;;;;;5026547;28;20060;-70
2021/07/07 06:49:09;;;;;;;11.07;3.22;;;18.00;99.90;;;;;;5024610;28;20028;-72
2021/07/07 06:51:35;;;;;;;8.48;2.75;;;18.10;99.90;;;;;;5031605;28;20390;-73
2021/07/07 06:54:00;;;;;;;10.80;3.45;;;18.30;99.90;;;;;;5019041;28;20120;-71
2021/07/07 06:56:26;;;;;;;7.50;3.42;;;18.50;99.90;;;;;;5028875;28;20099;-71
2021/07/07 06:58:52;;;;;;;7.97;3.08;;;18.60;99.90;;;;;;5030222;28;20028;-71
2021/07/07 07:01:17;;;;;;;7.15;2.92;;;18.70;99.90;;;;;;5028862;28;20037;-71
2021/07/07 07:03:43;;;;;;;9.52;3.28;;;18.80;99.90;;;;;;5028801;28;20037;-70
2021/07/07 07:06:09;;;;;;;10.52;3.20;;;18.90;99.90;;;;;;5026367;28;20024;-71
2021/07/07 07:08:34;;;;;;;7.88;3.08;;;18.90;99.90;;;;;;5027888;28;20025;-70
2021/07/07 07:11:00;;;;;;;6.00;2.97;;;19.00;99.90;;;;;;5029310;28;20040;-70
2021/07/07 07:13:26;;;;;;;7.40;3.25;;;19.10;99.90;;;;;;5024602;28;20087;-70
2021/07/07 07:15:51;;;;;;;12.93;3.58;;;19.30;99.90;;;;;;5024233;28;20076;-75
2021/07/07 07:18:18;;;;;;;9.65;2.85;;;19.40;99.90;;;;;;5004169;28;20042;-73
2021/07/07 07:20:43;;;;;;;10.48;3.40;;;19.40;99.90;;;;;;5028556;28;20068;-75
2021/07/07 07:23:09;;;;;;;8.88;2.70;;;19.50;99.90;;;;;;5029612;28;20515;-70
2021/07/07 07:25:36;;;;;;;8.80;3.25;;;19.60;99.90;;;;;;5028468;28;20057;-71
2021/07/07 07:28:02;;;;;;;8.10;2.80;;;19.60;99.90;;;;;;5028977;28;20116;-77
2021/07/07 07:30:29;;;;;;;11.18;2.97;;;19.70;99.90;;;;;;5030887;28;20100;-70
2021/07/07 07:32:55;;;;;;;10.65;3.55;;;19.80;99.90;;;;;;5027989;28;20549;-69
2021/07/07 07:35:21;;;;;;;7.97;3.10;;;19.90;99.90;;;;;;5031180;28;20032;-70
2021/07/07 07:40:21;;;;;;;8.68;3.17;;;20.10;99.90;;;;;;5030870;28;20033;-72
2021/07/07 07:42:46;;;;;;;9.45;2.97;;;20.20;99.90;;;;;;5032905;28;20492;-72
2021/07/07 07:45:13;;;;;;;7.72;2.45;;;20.30;99.90;;;;;;5030496;28;20018;-74
2021/07/07 07:47:42;;;;;;;9.13;3.17;;;20.40;99.90;;;;;;5032280;28;20021;-70
2021/07/07 07:50:13;;;;;;;7.45;2.90;;;20.50;99.90;;;;;;5029988;28;20036;-70
2021/07/07 07:52:39;;;;;;;7.85;2.85;;;20.60;99.90;;;;;;5030386;28;20017;-72
2021/07/07 07:55:06;;;;;;;9.05;2.78;;;20.70;99.90;;;;;;5032082;28;20026;-70
2021/07/07 07:57:36;;;;;;;9.75;2.70;;;20.80;99.90;;;;;;5028225;28;20064;-69
2021/07/07 08:00:14;;;;;;;6.95;2.63;;;20.80;99.90;;;;;;5032601;28;20139;-70
2021/07/07 08:02:40;;;;;;;8.57;3.15;;;20.90;99.90;;;;;;5029337;28;20047;-70
2021/07/07 08:05:06;;;;;;;10.55;3.25;;;21.00;99.90;;;;;;5033581;28;20029;-69
2021/07/07 08:07:32;;;;;;;10.52;2.92;;;21.10;99.90;;;;;;5030200;28;20018;-69
2021/07/07 08:09:58;;;;;;;9.50;2.95;;;21.20;99.90;;;;;;5030415;28;20048;-70
2021/07/07 08:12:24;;;;;;;10.55;2.97;;;21.10;99.90;;;;;;5030622;28;20470;-70
2021/07/07 08:14:51;;;;;;;8.60;2.83;;;21.10;99.90;;;;;;5028625;28;20026;-69
2021/07/07 08:17:18;;;;;;;6.78;2.83;;;21.10;99.90;;;;;;5037992;28;20576;-69
2021/07/07 08:19:44;;;;;;;11.43;3.78;;;21.30;99.90;;;;;;5032410;28;20382;-70
2021/07/07 08:22:10;;;;;;;7.95;2.85;;;21.40;99.90;;;;;;5034342;28;20520;-79
2021/07/07 08:24:35;;;;;;;5.45;2.15;;;21.30;99.90;;;;;;5033592;28;20028;-72
2021/07/07 08:27:01;;;;;;;11.40;3.20;;;21.40;99.90;;;;;;5034006;28;20025;-71
2021/07/07 08:29:27;;;;;;;10.73;3.47;;;21.50;99.90;;;;;;5032394;28;20689;-78
2021/07/07 08:31:53;;;;;;;7.10;2.20;;;21.60;99.90;;;;;;5032797;28;20064;-76
2021/07/07 08:34:19;;;;;;;8.35;2.53;;;21.60;99.90;;;;;;5033907;28;20477;-79
2021/07/07 08:36:44;;;;;;;7.20;2.78;;;21.50;99.90;;;;;;5031763;28;20040;-76
2021/07/07 08:39:10;;;;;;;6.60;2.70;;;21.40;99.90;;;;;;5024404;28;20108;-75
2021/07/07 08:41:38;;;;;;;7.55;2.42;;;21.50;99.90;;;;;;5033493;28;20402;-76
2021/07/07 08:44:06;;;;;;;8.20;2.35;;;21.60;99.90;;;;;;5036470;28;20025;-78
2021/07/07 08:46:33;;;;;;;8.75;2.70;;;21.70;99.90;;;;;;5034234;28;20071;-78
2021/07/07 08:49:02;;;;;;;9.63;3.33;;;21.60;99.90;;;;;;5031494;28;20102;-84
2021/07/07 08:51:30;;;;;;;6.32;2.15;;;21.80;99.90;;;;;;5037102;28;20107;-85
2021/07/07 08:53:59;;;;;;;6.53;2.28;;;21.80;99.90;;;;;;5026995;28;20021;-80
2021/07/07 08:56:24;;;;;;;6.07;2.05;;;21.80;99.90;;;;;;5033677;28;20112;-78
2021/07/07 08:58:51;;;;;;;9.23;2.13;;;22.00;99.90;;;;;;5030544;28;20108;-81
2021/07/07 09:01:17;;;;;;;8.20;2.38;;;22.10;99.90;;;;;;5033319;28;20026;-78
2021/07/07 09:03:48;;;;;;;6.32;2.03;;;22.00;99.90;;;;;;5031857;28;20389;-73
2021/07/07 09:06:14;;;;;;;6.43;2.13;;;22.10;99.90;;;;;;5033760;28;20033;-76
2021/07/07 09:08:47;;;;;;;5.78;2.25;;;22.20;99.90;;;;;;5031991;28;20017;-73
2021/07/07 09:11:19;;;;;;;6.50;2.42;;;22.30;99.90;;;;;;5044147;28;20653;-73
2021/07/07 09:13:47;;;;;;;6.13;2.17;;;22.30;99.90;;;;;;5030035;28;20013;-73
2021/07/07 09:16:16;;;;;;;7.40;2.40;;;22.50;99.90;;;;;;5031173;28;20042;-80
2021/07/07 09:18:42;;;;;;;6.47;2.42;;;22.40;99.90;;;;;;5031032;28;20075;-74
2021/07/07 09:21:28;;;;;;;7.90;2.10;;;22.60;99.90;;;;;;5031537;28;20064;-75
2021/07/07 09:23:55;;;;;;;9.27;2.45;;;22.60;99.90;;;;;;5025537;28;20025;-73
2021/07/07 09:26:32;;;;;;;6.47;2.30;;;22.50;99.90;;;;;;5032673;28;20045;-78
2021/07/07 09:28:58;;;;;;;7.03;2.22;;;22.40;99.90;;;;;;5031518;28;20025;-73
2021/07/07 09:31:41;;;;;;;6.63;2.03;;;22.30;99.90;;;;;;5032740;28;20100;-70
2021/07/07 09:34:22;;;;;;;7.68;2.00;;;22.00;99.90;;;;;;5028958;28;20048;-71
2021/07/07 09:36:52;;;;;;;9.20;2.30;;;22.10;99.90;;;;;;5031352;28;20034;-73
2021/07/07 09:39:20;;;;;;;8.60;2.50;;;22.10;99.90;;;;;;5029463;28;20497;-72
2021/07/07 09:41:51;;;;;;;5.78;1.95;;;22.00;99.90;;;;;;5031966;28;20029;-78
2021/07/07 09:44:20;;;;;;;4.05;1.92;;;21.90;99.90;;;;;;5022366;28;20101;-71
2021/07/07 09:46:45;;;;;;;4.10;2.13;;;21.90;99.90;;;;;;5030898;28;20025;-72
2021/07/07 09:49:11;;;;;;;9.80;2.40;;;21.90;99.90;;;;;;5031385;28;20060;-71
2021/07/07 09:51:37;;;;;;;6.93;2.35;;;21.90;99.90;;;;;;5030495;28;20064;-71
2021/07/07 09:54:05;;;;;;;10.55;2.90;;;21.90;99.90;;;;;;5031284;28;20021;-71
2021/07/07 09:56:32;;;;;;;9.20;2.60;;;21.90;99.90;;;;;;5031359;28;20065;-72
2021/07/07 09:58:59;;;;;;;5.80;2.20;;;21.80;99.90;;;;;;5026397;28;20474;-72
2021/07/07 10:01:25;;;;;;;5.93;2.40;;;21.90;99.90;;;;;;5023895;28;20051;-70
2021/07/07 10:03:52;;;;;;;5.22;2.38;;;22.00;99.90;;;;;;5025133;28;20099;-71
2021/07/07 10:06:17;;;;;;;4.50;2.08;;;22.40;99.90;;;;;;5030381;28;20055;-72
2021/07/07 10:08:45;;;;;;;5.00;2.10;;;22.50;99.90;;;;;;5031014;28;20426;-71
2021/07/07 10:11:11;;;;;;;8.32;2.42;;;22.60;99.90;;;;;;5025239;28;21053;-73
2021/07/07 10:13:38;;;;;;;6.32;2.05;;;22.70;99.90;;;;;;5027566;28;20029;-73
2021/07/07 10:16:04;;;;;;;5.80;2.35;;;23.00;99.90;;;;;;5028513;28;20033;-71
2021/07/07 10:18:32;;;;;;;4.93;2.05;;;22.80;99.90;;;;;;5029245;28;20052;-73
2021/07/07 10:20:58;;;;;;;6.95;2.00;;;22.50;99.90;;;;;;5025461;28;20025;-71
2021/07/07 10:23:24;;;;;;;3.22;2.10;;;22.50;99.90;;;;;;5024990;28;20040;-73
2021/07/07 10:25:52;;;;;;;8.32;2.42;;;22.90;99.90;;;;;;5026008;28;20133;-73
2021/07/07 10:28:18;;;;;;;8.85;2.45;;;23.30;99.90;;;;;;5029849;28;20176;-72
2021/07/07 10:30:55;;;;;;;5.47;2.25;;;23.40;99.90;;;;;;5030332;28;20113;-71
2021/07/07 10:33:23;;;;;;;5.28;2.10;;;22.90;99.90;;;;;;5033863;28;20032;-69
2021/07/07 10:35:49;;;;;;;7.22;2.53;;;23.00;99.90;;;;;;5029840;28;20041;-70
2021/07/07 10:38:16;;;;;;;6.40;2.25;;;23.20;99.90;;;;;;5028108;28;20030;-70
2021/07/07 10:40:51;;;;;;;4.20;1.90;;;23.40;99.90;;;;;;5029503;28;20029;-71
2021/07/07 10:43:24;;;;;;;5.22;2.50;;;23.60;99.90;;;;;;5027516;28;20030;-72
2021/07/07 10:45:50;;;;;;;9.52;2.65;;;24.10;99.90;;;;;;5019662;28;20045;-70
2021/07/07 10:48:27;;;;;;;3.22;1.80;;;24.30;99.90;;;;;;5028869;28;20482;-72
2021/07/07 10:51:16;;;;;;;3.58;1.90;;;24.20;99.90;;;;;;5025164;28;20455;-72
2021/07/07 10:53:41;;;;;;;5.68;2.40;;;23.80;99.90;;;;;;5017450;28;20784;-70
2021/07/07 10:56:08;;;;;;;5.97;2.10;;;23.60;99.90;;;;;;5039281;28;20121;-73
2021/07/07 10:58:38;;;;;;;3.53;2.17;;;24.10;99.90;;;;;;5028874;28;20030;-70
2021/07/07 11:01:34;;;;;;;5.28;2.05;;;24.30;99.90;;;;;;5028888;28;20053;-72
2021/07/07 11:04:01;;;;;;;4.28;1.98;;;24.50;99.90;;;;;;5033293;28;20466;-69
2021/07/07 11:06:27;;;;;;;5.25;2.88;;;24.30;99.90;;;;;;5048674;28;20030;-70
2021/07/07 11:09:07;;;;;;;5.05;2.00;;;24.20;99.90;;;;;;5028388;28;20539;-71
2021/07/07 11:11:35;;;;;;;4.95;1.83;;;24.20;99.90;;;;;;5029866;28;20056;-69
2021/07/07 11:14:14;;;;;;;4.38;2.08;;;24.50;99.90;;;;;;5048888;28;20025;-73
2021/07/07 11:16:54;;;;;;;3.40;1.77;;;24.60;99.90;;;;;;5026225;28;20036;-70
2021/07/07 11:19:45;;;;;;;5.28;2.20;;;24.80;99.90;;;;;;5030213;28;20017;-69
2021/07/07 11:22:13;;;;;;;4.82;2.30;;;25.00;99.90;;;;;;5031051;28;20550;-69
2021/07/07 11:24:53;;;;;;;4.78;2.38;;;25.30;99.90;;;;;;5030757;28;20408;-70
2021/07/07 11:27:19;;;;;;;5.45;2.08;;;25.70;99.90;;;;;;5036074;28;20820;-73
2021/07/07 11:29:45;;;;;;;3.15;2.10;;;25.60;99.90;;;;;;5031428;28;20029;-70
2021/07/07 11:32:29;;;;;;;3.33;1.92;;;25.30;99.90;;;;;;5033584;28;20164;-70
2021/07/07 11:35:01;;;;;;;2.97;2.08;;;25.50;99.90;;;;;;5026384;28;20040;-74
2021/07/07 11:37:32;;;;;;;3.60;2.00;;;25.40;99.90;;;;;;5023815;28;20040;-73
2021/07/07 11:40:10;;;;;;;6.43;2.78;;;25.60;99.90;;;;;;5028519;28;20030;-70
2021/07/07 11:43:01;;;;;;;3.97;2.38;;;25.60;99.90;;;;;;5031334;28;20090;-70
2021/07/07 11:45:34;;;;;;;5.25;2.50;;;25.80;99.90;;;;;;5029678;28;20018;-70
2021/07/07 11:48:24;;;;;;;5.50;3.33;;;25.90;99.90;;;;;;5030198;28;20033;-70
2021/07/07 11:50:57;;;;;;;3.63;2.20;;;25.70;99.90;;;;;;5029165;28;20366;-72
2021/07/07 11:53:53;;;;;;;5.80;2.65;;;25.40;99.90;;;;;;5034547;28;20021;-72
2021/07/07 11:56:24;;;;;;;5.30;3.20;;;25.30;99.90;;;;;;5009120;28;20033;-73
2021/07/07 11:58:55;;;;;;;6.75;2.65;;;25.20;99.90;;;;;;5032257;28;20029;-70
2021/07/07 12:01:36;;;;;;;5.65;2.15;;;25.00;99.90;;;;;;5032207;28;20387;-70
2021/07/07 12:04:12;;;;;;;3.00;1.70;;;25.00;99.90;;;;;;5033516;28;20052;-71
2021/07/07 12:06:45;;;;;;;4.22;1.98;;;25.00;99.90;;;;;;5033276;28;20021;-71
2021/07/07 12:09:22;;;;;;;5.10;2.25;;;24.90;99.90;;;;;;5032701;28;20021;-70
2021/07/07 12:11:54;;;;;;;4.50;1.95;;;24.70;99.90;;;;;;5030317;28;20470;-72
2021/07/07 12:14:23;;;;;;;5.90;2.00;;;24.70;99.90;;;;;;5032403;28;20111;-70
2021/07/07 12:16:49;;;;;;;7.53;2.90;;;25.10;99.90;;;;;;5031040;28;20843;-72
2021/07/07 12:19:15;;;;;;;6.55;2.28;;;25.40;99.90;;;;;;5033591;28;20018;-70
2021/07/07 12:21:54;;;;;;;4.43;1.77;;;25.30;99.80;;;;;;5032865;28;20107;-72
2021/07/07 12:24:24;;;;;;;3.17;1.80;;;25.10;99.90;;;;;;5031003;28;20056;-70
2021/07/07 12:27:14;;;;;;;2.83;2.03;;;25.10;99.90;;;;;;5026992;28;20034;-71
2021/07/07 12:29:43;;;;;;;4.88;2.00;;;25.00;99.90;;;;;;5046219;28;20545;-73
2021/07/07 12:32:21;;;;;;;3.55;2.08;;;25.00;99.90;;;;;;5027870;28;20067;-72
2021/07/07 12:34:51;;;;;;;4.57;2.22;;;24.90;99.90;;;;;;5027019;28;20033;-71
2021/07/07 12:37:17;;;;;;;5.20;2.00;;;24.90;99.90;;;;;;5029989;28;20026;-73
2021/07/07 12:39:51;;;;;;;2.80;1.80;;;24.90;99.90;;;;;;5031346;28;20458;-77
2021/07/07 12:42:27;;;;;;;3.80;2.03;;;24.90;99.90;;;;;;5028528;28;20489;-73
2021/07/07 12:45:20;;;;;;;3.13;1.95;;;25.10;99.90;;;;;;5047066;28;20485;-72
2021/07/07 12:48:05;;;;;;;5.35;2.10;;;25.30;99.90;;;;;;5032472;28;20393;-73
2021/07/07 12:50:41;;;;;;;3.03;2.03;;;25.40;99.90;;;;;;5031683;28;20022;-71
2021/07/07 12:53:07;;;;;;;3.40;1.70;;;25.30;99.90;;;;;;5031264;28;20036;-71